KBVO/BVO METAR and TAF weather

Enter ICAO airport designator
Station Type Date Time Source
KBVO METAR 2019/10/21 05:53 UTC NOAA

KBVO 210553Z AUTO 36003KT 10SM CLR 13/08 A2960 RMK AO2 SLP015 60011 T01280083 10211 20128 402560050 51040 $


Station Type Date Time Source
KBVO Decoded METAR 2019/10/21 05:53 UTC NOAA

BARTLESVILLE MUNICIPAL AIRPORT , OK, United States (KBVO) 36-46N 96-01W 210M
Oct 21, 2019 - 01:53 AM EDT / 2019.10.21 0553 UTC
Wind: from the N (360 degrees) at 3 MPH (3 KT):0
Visibility: 10 mile(s):0
Sky conditions: clear
Temperature: 55.0 F (12.8 C)
Dew Point: 46.9 F (8.3 C)
Relative Humidity: 74%
Pressure (altimeter): 29.6 in. Hg (1002 hPa)
Pressure tendency: 0.12 inches (4.0 hPa) higher than three hours ago
ob: KBVO 210553Z AUTO 36003KT 10SM CLR 13/08 A2960 RMK AO2 SLP015 60011 T01280083 10211 20128 402560050 51040
cycle: 6

Station Type Date Time Source
KBVO TAF 2019/10/21 06:22 UTC NOAA

TAF KBVO 210520Z 2106/2206 30004KT P6SM SCT050
FM211500 28011G18KT P6SM SKC
FM220000 VRB03KT P6SM SKC

Example: see airport list